Time;durP1;ratioP1;P1;durP2;ratioP2;P2;SDS_P1;SDS_P2;PMS_P1;PMS_P2;Temp;Humidity;BMP_temperature;BMP_pressure;BME280_temperature;BME280_humidity;BME280_pressure;Samples;Min_cycle;Max_cycle;Signal;HPM_P1;HPM_P2
2023/10/31 00:00:05;;;;;;;5.13;3.60;;;;;;;;;;702154;28;896;-68
2023/10/31 00:00:25;;;;;;;4.82;3.53;;;;;;;;;;701544;28;3086;-70
2023/10/31 00:00:45;;;;;;;4.70;3.30;;;;;;;;;;702780;28;4471;-70
2023/10/31 00:01:06;;;;;;;4.30;3.00;;;;;;;;;;702415;28;927;-69
2023/10/31 00:01:26;;;;;;;4.23;2.77;;;;;;;;;;703093;28;1812;-66
2023/10/31 00:01:46;;;;;;;4.70;3.17;;;;;;;;;;706988;27;923;-71
2023/10/31 00:02:07;;;;;;;4.23;2.90;;;;;;;;;;705812;27;852;-73
2023/10/31 00:02:28;;;;;;;4.63;2.92;;;;;;;;;;704492;27;1734;-76
2023/10/31 00:02:48;;;;;;;4.57;2.90;;;;;;;;;;706897;27;777;-72
2023/10/31 00:03:09;;;;;;;4.00;2.80;;;;;;;;;;704482;27;868;-78
2023/10/31 00:03:30;;;;;;;4.45;2.70;;;;;;;;;;704315;27;1810;-76
2023/10/31 00:03:51;;;;;;;4.18;2.72;;;;;;;;;;705347;27;4336;-82
2023/10/31 00:04:12;;;;;;;3.97;2.63;;;;;;;;;;705136;27;800;-77
2023/10/31 00:04:33;;;;;;;4.55;2.95;;;;;;;;;;701533;28;2213;-74
2023/10/31 00:04:53;;;;;;;5.43;3.27;;;;;;;;;;703208;28;821;-77
2023/10/31 00:05:14;;;;;;;5.55;3.42;;;;;;;;;;697991;28;1334;-74
2023/10/31 00:05:34;;;;;;;5.47;3.67;;;;;;;;;;696941;28;1464;-78
2023/10/31 00:05:54;;;;;;;5.15;3.30;;;;;;;;;;696568;28;1162;-76
2023/10/31 00:06:15;;;;;;;5.37;3.30;;;;;;;;;;695823;28;833;-74
2023/10/31 00:06:36;;;;;;;5.50;3.30;;;;;;;;;;697508;28;899;-78
2023/10/31 00:06:57;;;;;;;5.50;3.25;;;;;;;;;;697226;28;4251;-81
2023/10/31 00:07:19;;;;;;;5.78;3.45;;;;;;;;;;701274;28;1409;-77
2023/10/31 00:07:40;;;;;;;5.20;3.28;;;;;;;;;;699092;28;2018;-77
2023/10/31 00:08:01;;;;;;;5.00;3.42;;;;;;;;;;701984;28;827;-76
2023/10/31 00:08:24;;;;;;;5.03;3.70;;;;;;;;;;701214;28;1287;-75
2023/10/31 00:08:45;;;;;;;6.03;3.92;;;;;;;;;;698081;28;2175;-76
2023/10/31 00:09:05;;;;;;;6.00;3.90;;;;;;;;;;698940;28;764;-77
2023/10/31 00:09:26;;;;;;;5.32;3.70;;;;;;;;;;700037;28;2400;-74
2023/10/31 00:09:46;;;;;;;4.87;3.50;;;;;;;;;;701253;28;4309;-74
2023/10/31 00:10:07;;;;;;;5.60;3.60;;;;;;;;;;701976;28;818;-77
2023/10/31 00:10:27;;;;;;;5.40;3.40;;;;;;;;;;703788;27;1862;-77
2023/10/31 00:10:47;;;;;;;5.60;3.37;;;;;;;;;;706013;27;887;-75
2023/10/31 00:11:08;;;;;;;5.80;3.60;;;;;;;;;;706362;27;820;-76
2023/10/31 00:11:28;;;;;;;4.83;3.53;;;;;;;;;;703362;28;1811;-70
2023/10/31 00:11:48;;;;;;;5.10;3.60;;;;;;;;;;703498;28;725;-77
2023/10/31 00:12:08;;;;;;;6.05;4.05;;;;;;;;;;703850;28;828;-71
2023/10/31 00:12:29;;;;;;;6.70;4.30;;;;;;;;;;701104;28;1560;-75
2023/10/31 00:12:49;;;;;;;6.67;4.33;;;;;;;;;;703902;28;4658;-73
2023/10/31 00:13:09;;;;;;;5.75;4.45;;;;;;;;;;702564;28;1322;-77
2023/10/31 00:13:29;;;;;;;8.03;5.93;;;;;;;;;;700204;28;2086;-76
2023/10/31 00:13:50;;;;;;;9.20;6.93;;;;;;;;;;702249;28;896;-75
2023/10/31 00:14:10;;;;;;;10.20;7.20;;;;;;;;;;701887;28;903;-73
2023/10/31 00:14:30;;;;;;;9.48;6.80;;;;;;;;;;700294;28;3136;-72
2023/10/31 00:14:51;;;;;;;8.97;6.67;;;;;;;;;;701436;28;790;-76
2023/10/31 00:15:11;;;;;;;8.27;6.60;;;;;;;;;;695653;28;1387;-77
2023/10/31 00:15:31;;;;;;;8.77;6.87;;;;;;;;;;696893;28;2354;-74
2023/10/31 00:15:51;;;;;;;7.67;5.90;;;;;;;;;;695483;28;4305;-76
2023/10/31 00:16:12;;;;;;;7.97;5.60;;;;;;;;;;698945;28;801;-75
2023/10/31 00:16:32;;;;;;;8.18;6.10;;;;;;;;;;699943;28;2620;-76
2023/10/31 00:16:52;;;;;;;9.50;7.43;;;;;;;;;;700780;28;998;-75
2023/10/31 00:17:12;;;;;;;11.03;8.87;;;;;;;;;;701160;28;827;-74
2023/10/31 00:17:33;;;;;;;10.95;9.00;;;;;;;;;;700319;28;1036;-73
2023/10/31 00:17:53;;;;;;;11.80;9.47;;;;;;;;;;701628;28;931;-76
2023/10/31 00:18:13;;;;;;;12.50;10.10;;;;;;;;;;699033;28;1249;-81
2023/10/31 00:18:34;;;;;;;12.25;9.73;;;;;;;;;;696552;28;1078;-75
2023/10/31 00:18:54;;;;;;;11.17;9.07;;;;;;;;;;693237;28;4237;-78
2023/10/31 00:19:14;;;;;;;10.37;8.40;;;;;;;;;;696068;28;1914;-73
2023/10/31 00:19:35;;;;;;;9.20;6.75;;;;;;;;;;695657;28;1702;-74
2023/10/31 00:19:55;;;;;;;8.07;6.30;;;;;;;;;;696994;28;958;-74
2023/10/31 00:20:15;;;;;;;8.63;6.53;;;;;;;;;;700407;28;3421;-76
2023/10/31 00:20:36;;;;;;;8.43;6.17;;;;;;;;;;700507;28;2365;-75
2023/10/31 00:20:56;;;;;;;8.40;5.50;;;;;;;;;;701205;28;1146;-74
2023/10/31 00:21:17;;;;;;;8.00;5.10;;;;;;;;;;701324;28;967;-73
2023/10/31 00:21:37;;;;;;;7.53;5.23;;;;;;;;;;699246;28;1881;-75
2023/10/31 00:21:57;;;;;;;7.15;5.05;;;;;;;;;;700556;28;5143;-75
2023/10/31 00:22:17;;;;;;;7.37;5.07;;;;;;;;;;701691;28;1254;-74
2023/10/31 00:22:38;;;;;;;6.93;4.53;;;;;;;;;;699201;28;2182;-75
2023/10/31 00:22:58;;;;;;;6.60;4.60;;;;;;;;;;702093;28;887;-74
2023/10/31 00:23:18;;;;;;;6.13;4.60;;;;;;;;;;702473;28;1283;-75
2023/10/31 00:23:43;;;;;;;6.60;4.70;;;;;;;;;;698864;28;1220;-71
2023/10/31 00:24:03;;;;;;;6.57;4.50;;;;;;;;;;701288;28;856;-75
2023/10/31 00:24:23;;;;;;;6.53;4.70;;;;;;;;;;703206;28;927;-76
2023/10/31 00:24:44;;;;;;;6.63;4.63;;;;;;;;;;698225;28;5237;-76
2023/10/31 00:25:04;;;;;;;8.65;5.80;;;;;;;;;;700913;28;986;-74
2023/10/31 00:25:24;;;;;;;13.23;9.03;;;;;;;;;;700785;28;900;-74
2023/10/31 00:25:44;;;;;;;13.60;9.77;;;;;;;;;;702091;28;2375;-72
2023/10/31 00:26:05;;;;;;;9.17;6.07;;;;;;;;;;703434;28;908;-73
2023/10/31 00:26:25;;;;;;;7.97;5.70;;;;;;;;;;703714;28;856;-72
2023/10/31 00:26:47;;;;;;;7.28;5.15;;;;;;;;;;705512;27;1114;-71
2023/10/31 00:27:07;;;;;;;7.22;5.00;;;;;;;;;;704726;27;882;-72
2023/10/31 00:27:28;;;;;;;6.43;4.83;;;;;;;;;;702656;28;1283;-73
2023/10/31 00:27:48;;;;;;;6.83;5.20;;;;;;;;;;699763;28;5174;-74
2023/10/31 00:28:08;;;;;;;7.22;5.20;;;;;;;;;;699583;28;789;-72
2023/10/31 00:28:28;;;;;;;7.43;5.20;;;;;;;;;;699792;28;2433;-75
2023/10/31 00:28:49;;;;;;;7.90;5.70;;;;;;;;;;698982;28;1090;-73
2023/10/31 00:29:09;;;;;;;6.97;5.40;;;;;;;;;;697994;28;1348;-74
2023/10/31 00:29:29;;;;;;;6.67;5.07;;;;;;;;;;694437;28;1200;-74
2023/10/31 00:29:50;;;;;;;6.63;4.83;;;;;;;;;;696596;28;825;-74
2023/10/31 00:30:10;;;;;;;7.13;4.93;;;;;;;;;;694966;28;1449;-77
2023/10/31 00:30:30;;;;;;;7.33;5.20;;;;;;;;;;692937;28;1850;-75
2023/10/31 00:30:51;;;;;;;7.30;5.00;;;;;;;;;;696244;28;4330;-73
2023/10/31 00:31:11;;;;;;;7.70;5.05;;;;;;;;;;697004;28;1323;-74
2023/10/31 00:31:34;;;;;;;7.23;5.20;;;;;;;;;;695714;28;2374;-73
2023/10/31 00:31:54;;;;;;;7.22;5.47;;;;;;;;;;698323;28;879;-73
2023/10/31 00:32:15;;;;;;;8.00;5.75;;;;;;;;;;700703;28;978;-75
2023/10/31 00:32:35;;;;;;;8.30;5.47;;;;;;;;;;697642;28;1538;-73
2023/10/31 00:32:55;;;;;;;7.70;5.80;;;;;;;;;;700553;28;1313;-73
2023/10/31 00:33:16;;;;;;;8.93;6.07;;;;;;;;;;697331;28;1276;-72
2023/10/31 00:33:36;;;;;;;8.00;6.10;;;;;;;;;;696066;28;1739;-75
2023/10/31 00:33:57;;;;;;;7.97;6.82;;;;;;;;;;697795;28;4209;-73
2023/10/31 00:34:17;;;;;;;7.40;6.47;;;;;;;;;;701651;28;808;-77
2023/10/31 00:34:38;;;;;;;7.03;5.25;;;;;;;;;;696792;28;2265;-79
2023/10/31 00:34:58;;;;;;;7.43;5.13;;;;;;;;;;695258;28;1301;-69
2023/10/31 00:35:18;;;;;;;7.03;4.60;;;;;;;;;;697192;28;896;-73
2023/10/31 00:35:38;;;;;;;6.55;4.53;;;;;;;;;;695581;28;2319;-75
2023/10/31 00:35:59;;;;;;;7.13;4.83;;;;;;;;;;697856;28;1333;-76
2023/10/31 00:36:19;;;;;;;7.50;4.83;;;;;;;;;;700606;28;859;-75
2023/10/31 00:36:39;;;;;;;6.10;4.68;;;;;;;;;;699459;28;2034;-74
2023/10/31 00:36:59;;;;;;;6.13;4.53;;;;;;;;;;702836;28;4196;-76
2023/10/31 00:37:20;;;;;;;5.87;4.40;;;;;;;;;;701767;28;1318;-77
2023/10/31 00:37:40;;;;;;;6.75;4.57;;;;;;;;;;700090;28;1757;-77
2023/10/31 00:38:00;;;;;;;6.43;4.67;;;;;;;;;;701123;28;1368;-75
2023/10/31 00:38:21;;;;;;;6.30;4.73;;;;;;;;;;701539;28;776;-75
2023/10/31 00:38:41;;;;;;;8.13;5.00;;;;;;;;;;699198;28;1767;-76
2023/10/31 00:39:01;;;;;;;6.90;4.83;;;;;;;;;;699689;28;6203;-75
2023/10/31 00:39:22;;;;;;;7.10;4.60;;;;;;;;;;700539;28;1973;-78
2023/10/31 00:39:42;;;;;;;6.68;4.80;;;;;;;;;;697786;28;4279;-79
2023/10/31 00:40:02;;;;;;;5.67;4.27;;;;;;;;;;696795;28;1268;-75
2023/10/31 00:40:23;;;;;;;6.93;4.57;;;;;;;;;;698176;28;816;-77
2023/10/31 00:40:43;;;;;;;8.07;5.33;;;;;;;;;;695381;28;2008;-78
2023/10/31 00:41:03;;;;;;;7.17;5.50;;;;;;;;;;699127;28;1173;-79
2023/10/31 00:41:23;;;;;;;7.60;5.60;;;;;;;;;;697555;28;1108;-77
2023/10/31 00:41:47;;;;;;;6.63;4.93;;;;;;;;;;696563;28;1808;-76
2023/10/31 00:42:08;;;;;;;6.13;4.15;;;;;;;;;;694288;28;1306;-76
2023/10/31 00:42:30;;;;;;;5.72;3.97;;;;;;;;;;691058;28;1915;-77
2023/10/31 00:42:50;;;;;;;5.93;3.88;;;;;;;;;;692417;28;5046;-79
2023/10/31 00:43:11;;;;;;;5.43;3.83;;;;;;;;;;695314;28;1000;-80
2023/10/31 00:43:31;;;;;;;6.90;4.00;;;;;;;;;;694547;28;3030;-76
2023/10/31 00:43:51;;;;;;;6.55;4.00;;;;;;;;;;693589;28;1166;-77
2023/10/31 00:44:12;;;;;;;5.90;3.70;;;;;;;;;;695706;28;765;-80
2023/10/31 00:44:32;;;;;;;6.40;4.00;;;;;;;;;;697719;28;2020;-77
2023/10/31 00:44:52;;;;;;;6.23;4.20;;;;;;;;;;697819;28;801;-75
2023/10/31 00:45:13;;;;;;;5.77;3.90;;;;;;;;;;696449;28;1480;-77
2023/10/31 00:45:33;;;;;;;5.25;3.80;;;;;;;;;;692197;28;1879;-77
2023/10/31 00:45:54;;;;;;;5.50;4.00;;;;;;;;;;695640;28;4403;-77
2023/10/31 00:46:14;;;;;;;6.72;4.43;;;;;;;;;;695445;28;920;-77
2023/10/31 00:46:34;;;;;;;6.53;4.27;;;;;;;;;;693909;28;1665;-79
2023/10/31 00:46:56;;;;;;;5.75;3.65;;;;;;;;;;699254;28;916;-78
2023/10/31 00:47:17;;;;;;;5.43;3.53;;;;;;;;;;696986;28;934;-76
2023/10/31 00:47:37;;;;;;;6.13;3.75;;;;;;;;;;702296;28;1005;-75
2023/10/31 00:47:58;;;;;;;7.00;4.00;;;;;;;;;;700411;28;1287;-76
2023/10/31 00:48:19;;;;;;;6.40;4.00;;;;;;;;;;699158;28;808;-76
2023/10/31 00:48:42;;;;;;;6.15;4.30;;;;;;;;;;699839;28;1434;-74
2023/10/31 00:49:03;;;;;;;6.70;4.05;;;;;;;;;;701541;28;4737;-73
2023/10/31 00:49:23;;;;;;;6.57;3.95;;;;;;;;;;699268;28;1345;-73
2023/10/31 00:49:43;;;;;;;6.43;3.80;;;;;;;;;;699674;28;1571;-72
2023/10/31 00:50:04;;;;;;;5.80;3.90;;;;;;;;;;696730;28;1253;-75
2023/10/31 00:50:24;;;;;;;5.63;4.10;;;;;;;;;;698207;28;765;-73
2023/10/31 00:50:44;;;;;;;5.00;3.77;;;;;;;;;;695767;28;1861;-73
2023/10/31 00:51:05;;;;;;;5.23;3.60;;;;;;;;;;695940;28;1175;-74
2023/10/31 00:51:25;;;;;;;5.82;3.90;;;;;;;;;;693144;28;1194;-73
2023/10/31 00:51:45;;;;;;;5.80;4.13;;;;;;;;;;691458;28;4281;-72
2023/10/31 00:52:06;;;;;;;6.63;4.27;;;;;;;;;;690708;28;1271;-72
2023/10/31 00:52:26;;;;;;;7.25;4.32;;;;;;;;;;694459;28;1293;-72
2023/10/31 00:52:46;;;;;;;7.23;4.63;;;;;;;;;;696418;28;2221;-72
2023/10/31 00:53:07;;;;;;;6.13;4.27;;;;;;;;;;697602;28;856;-72
2023/10/31 00:53:28;;;;;;;6.95;4.35;;;;;;;;;;700726;28;860;-73
2023/10/31 00:53:48;;;;;;;6.63;4.20;;;;;;;;;;697614;28;1365;-73
2023/10/31 00:54:08;;;;;;;6.97;4.30;;;;;;;;;;701823;28;915;-73
2023/10/31 00:54:29;;;;;;;6.45;4.45;;;;;;;;;;697501;28;1278;-73
2023/10/31 00:54:49;;;;;;;6.63;4.40;;;;;;;;;;698885;28;4936;-73
2023/10/31 00:55:09;;;;;;;7.30;5.00;;;;;;;;;;699603;28;1521;-74
2023/10/31 00:55:29;;;;;;;7.80;6.30;;;;;;;;;;700322;28;1115;-72
2023/10/31 00:55:50;;;;;;;7.63;5.93;;;;;;;;;;699439;28;1734;-73
2023/10/31 00:56:10;;;;;;;7.23;5.07;;;;;;;;;;699141;28;1315;-73
2023/10/31 00:56:30;;;;;;;6.30;4.30;;;;;;;;;;698616;28;1246;-73
2023/10/31 00:56:51;;;;;;;6.28;4.45;;;;;;;;;;695621;28;1340;-73
2023/10/31 00:57:12;;;;;;;6.28;4.53;;;;;;;;;;698015;28;911;-73
2023/10/31 00:57:34;;;;;;;5.85;4.05;;;;;;;;;;696686;28;1606;-72
2023/10/31 00:57:54;;;;;;;5.73;4.17;;;;;;;;;;697189;28;4235;-72
2023/10/31 00:58:14;;;;;;;7.13;4.60;;;;;;;;;;694468;28;1203;-73
2023/10/31 00:58:34;;;;;;;6.40;4.50;;;;;;;;;;693555;28;1975;-73
2023/10/31 00:58:55;;;;;;;6.50;4.47;;;;;;;;;;697298;28;759;-73
2023/10/31 00:59:15;;;;;;;6.70;4.50;;;;;;;;;;697033;28;1971;-73
2023/10/31 00:59:35;;;;;;;6.50;4.30;;;;;;;;;;699410;28;1051;-73
2023/10/31 00:59:56;;;;;;;6.70;4.40;;;;;;;;;;699483;28;1106;-73
2023/10/31 01:00:17;;;;;;;5.75;4.57;;;;;;;;;;701677;28;946;-74
2023/10/31 01:00:37;;;;;;;6.83;5.00;;;;;;;;;;705300;27;1761;-72
2023/10/31 01:00:58;;;;;;;7.13;4.67;;;;;;;;;;702193;28;4261;-73
2023/10/31 01:01:18;;;;;;;6.78;4.65;;;;;;;;;;702769;28;951;-74
2023/10/31 01:01:38;;;;;;;6.23;4.60;;;;;;;;;;701970;28;2322;-72
2023/10/31 01:01:58;;;;;;;6.87;4.70;;;;;;;;;;703356;28;824;-73
2023/10/31 01:02:19;;;;;;;7.40;5.03;;;;;;;;;;702811;28;1065;-73
2023/10/31 01:02:39;;;;;;;7.10;5.00;;;;;;;;;;699886;28;2186;-73
2023/10/31 01:02:59;;;;;;;6.80;4.93;;;;;;;;;;702368;28;910;-74
2023/10/31 01:03:20;;;;;;;6.82;5.05;;;;;;;;;;703550;28;911;-73
2023/10/31 01:03:41;;;;;;;7.37;4.80;;;;;;;;;;701942;28;1739;-73
2023/10/31 01:04:01;;;;;;;7.35;5.00;;;;;;;;;;703211;28;4455;-74
2023/10/31 01:04:22;;;;;;;6.80;4.60;;;;;;;;;;698378;28;1217;-73
2023/10/31 01:04:42;;;;;;;7.00;4.80;;;;;;;;;;691733;28;2524;-73
2023/10/31 01:05:02;;;;;;;6.47;4.82;;;;;;;;;;691796;28;1030;-71
2023/10/31 01:05:23;;;;;;;7.13;4.90;;;;;;;;;;689394;28;1482;-73
2023/10/31 01:05:44;;;;;;;8.40;5.67;;;;;;;;;;690184;28;1693;-74
2023/10/31 01:06:04;;;;;;;7.93;5.90;;;;;;;;;;695869;28;893;-73
2023/10/31 01:06:24;;;;;;;8.93;6.33;;;;;;;;;;697028;28;1026;-73
2023/10/31 01:06:45;;;;;;;9.27;6.50;;;;;;;;;;697811;28;4303;-72
2023/10/31 01:07:06;;;;;;;8.68;5.78;;;;;;;;;;698276;28;1330;-72
2023/10/31 01:07:28;;;;;;;6.95;5.10;;;;;;;;;;699471;28;1232;-72
2023/10/31 01:07:48;;;;;;;6.57;5.20;;;;;;;;;;696402;28;2020;-73
2023/10/31 01:08:08;;;;;;;9.70;5.30;;;;;;;;;;694289;28;1383;-73
2023/10/31 01:08:29;;;;;;;10.07;5.10;;;;;;;;;;695784;28;1377;-73
2023/10/31 01:08:50;;;;;;;8.35;5.00;;;;;;;;;;694561;28;1577;-74
2023/10/31 01:09:11;;;;;;;7.63;4.67;;;;;;;;;;695801;28;805;-74
2023/10/31 01:09:31;;;;;;;6.78;4.43;;;;;;;;;;698495;28;872;-73
2023/10/31 01:09:51;;;;;;;6.93;4.50;;;;;;;;;;695653;28;4274;-72
2023/10/31 01:10:12;;;;;;;5.77;4.00;;;;;;;;;;699208;28;1283;-72
2023/10/31 01:10:32;;;;;;;5.60;3.80;;;;;;;;;;696799;28;1821;-72
2023/10/31 01:10:52;;;;;;;5.97;4.20;;;;;;;;;;700789;28;941;-73
2023/10/31 01:11:13;;;;;;;5.37;3.93;;;;;;;;;;699642;28;1278;-72
2023/10/31 01:11:33;;;;;;;5.60;3.80;;;;;;;;;;696840;28;1722;-70
2023/10/31 01:11:54;;;;;;;6.60;4.10;;;;;;;;;;699247;28;836;-71
2023/10/31 01:12:14;;;;;;;5.70;3.83;;;;;;;;;;700725;28;843;-72
2023/10/31 01:12:34;;;;;;;5.23;3.70;;;;;;;;;;699039;28;2325;-71
2023/10/31 01:12:55;;;;;;;5.70;3.83;;;;;;;;;;697890;28;4454;-72
2023/10/31 01:13:16;;;;;;;5.90;3.77;;;;;;;;;;696080;28;1316;-72
2023/10/31 01:13:36;;;;;;;5.60;3.70;;;;;;;;;;697286;28;1341;-71
2023/10/31 01:13:57;;;;;;;5.83;3.80;;;;;;;;;;696075;28;1334;-71
2023/10/31 01:14:17;;;;;;;6.38;3.80;;;;;;;;;;691380;28;1333;-72
2023/10/31 01:14:37;;;;;;;5.87;3.73;;;;;;;;;;693667;28;1653;-71
2023/10/31 01:14:58;;;;;;;5.87;3.57;;;;;;;;;;698663;28;1314;-71
2023/10/31 01:15:18;;;;;;;5.25;3.60;;;;;;;;;;701020;28;1338;-70
2023/10/31 01:15:39;;;;;;;5.47;3.80;;;;;;;;;;699621;28;1732;-71
2023/10/31 01:15:59;;;;;;;5.30;3.72;;;;;;;;;;701163;28;4224;-72
2023/10/31 01:16:19;;;;;;;5.73;3.73;;;;;;;;;;700858;28;3394;-71
2023/10/31 01:16:40;;;;;;;5.63;3.60;;;;;;;;;;699072;28;2319;-71
2023/10/31 01:17:01;;;;;;;5.30;3.67;;;;;;;;;;701193;28;1320;-70
2023/10/31 01:17:21;;;;;;;6.10;4.07;;;;;;;;;;701244;28;913;-71
2023/10/31 01:17:41;;;;;;;5.90;4.23;;;;;;;;;;698690;28;1765;-73
2023/10/31 01:18:02;;;;;;;6.20;4.30;;;;;;;;;;701029;28;975;-71
2023/10/31 01:18:22;;;;;;;6.30;4.00;;;;;;;;;;698451;28;982;-71
2023/10/31 01:18:42;;;;;;;6.65;4.10;;;;;;;;;;695691;28;4276;-71
2023/10/31 01:19:03;;;;;;;6.27;4.40;;;;;;;;;;697937;28;804;-71
2023/10/31 01:19:23;;;;;;;8.38;4.80;;;;;;;;;;699224;28;1914;-71
2023/10/31 01:19:43;;;;;;;7.83;4.57;;;;;;;;;;698961;28;1736;-71
2023/10/31 01:20:05;;;;;;;6.93;4.97;;;;;;;;;;698344;28;1364;-71
2023/10/31 01:20:25;;;;;;;7.97;4.70;;;;;;;;;;699098;28;1035;-71
2023/10/31 01:20:46;;;;;;;6.33;4.30;;;;;;;;;;699603;28;1731;-71
2023/10/31 01:21:06;;;;;;;7.27;4.50;;;;;;;;;;701273;28;967;-71
2023/10/31 01:21:26;;;;;;;7.00;4.35;;;;;;;;;;698943;28;773;-71
2023/10/31 01:21:46;;;;;;;6.10;4.23;;;;;;;;;;699339;28;4488;-71
2023/10/31 01:22:07;;;;;;;6.30;4.10;;;;;;;;;;701672;28;792;-71
2023/10/31 01:22:27;;;;;;;6.40;3.90;;;;;;;;;;701838;28;1216;-71
2023/10/31 01:22:47;;;;;;;7.17;3.93;;;;;;;;;;701343;28;1434;-71
2023/10/31 01:23:08;;;;;;;6.67;4.40;;;;;;;;;;701989;28;1161;-70
2023/10/31 01:23:28;;;;;;;5.70;3.97;;;;;;;;;;702859;27;886;-71
2023/10/31 01:23:49;;;;;;;5.67;3.90;;;;;;;;;;704239;27;1452;-71
2023/10/31 01:24:09;;;;;;;5.85;3.60;;;;;;;;;;702567;28;1427;-70
2023/10/31 01:24:29;;;;;;;6.27;3.53;;;;;;;;;;702895;28;963;-71
2023/10/31 01:24:50;;;;;;;6.15;3.50;;;;;;;;;;701144;28;4237;-71
2023/10/31 01:25:10;;;;;;;5.73;3.73;;;;;;;;;;700321;28;1177;-71
2023/10/31 01:25:30;;;;;;;5.93;3.70;;;;;;;;;;699446;28;1317;-71
2023/10/31 01:25:51;;;;;;;6.10;3.70;;;;;;;;;;699316;28;2102;-71
2023/10/31 01:26:11;;;;;;;6.30;4.00;;;;;;;;;;698575;28;1319;-71
2023/10/31 01:26:31;;;;;;;5.85;3.80;;;;;;;;;;694464;28;1363;-70
2023/10/31 01:26:52;;;;;;;5.57;3.80;;;;;;;;;;692917;28;1475;-71
2023/10/31 01:27:12;;;;;;;5.97;3.83;;;;;;;;;;692450;28;1158;-71
2023/10/31 01:27:32;;;;;;;5.78;3.67;;;;;;;;;;693283;28;1557;-71
2023/10/31 01:27:53;;;;;;;5.83;3.80;;;;;;;;;;692160;28;4506;-71
2023/10/31 01:28:13;;;;;;;7.40;4.10;;;;;;;;;;695481;28;1323;-71
2023/10/31 01:28:33;;;;;;;6.60;4.30;;;;;;;;;;699609;28;872;-69
2023/10/31 01:28:54;;;;;;;6.33;4.07;;;;;;;;;;698530;28;980;-70
2023/10/31 01:29:14;;;;;;;7.23;4.53;;;;;;;;;;701333;28;936;-71
2023/10/31 01:29:34;;;;;;;6.80;4.43;;;;;;;;;;702604;28;1867;-72
2023/10/31 01:29:55;;;;;;;6.40;3.90;;;;;;;;;;701808;28;988;-72
2023/10/31 01:30:16;;;;;;;5.75;4.15;;;;;;;;;;700397;28;1166;-69
2023/10/31 01:30:37;;;;;;;6.60;4.22;;;;;;;;;;698458;28;1836;-71
2023/10/31 01:30:58;;;;;;;7.28;4.60;;;;;;;;;;699233;28;4229;-70
2023/10/31 01:31:18;;;;;;;6.37;4.47;;;;;;;;;;698908;28;1388;-72
2023/10/31 01:31:40;;;;;;;6.57;4.40;;;;;;;;;;697031;28;1308;-71
2023/10/31 01:32:01;;;;;;;6.93;4.57;;;;;;;;;;698260;28;892;-71
2023/10/31 01:32:22;;;;;;;6.88;4.50;;;;;;;;;;696348;28;1525;-70
2023/10/31 01:32:42;;;;;;;6.37;4.27;;;;;;;;;;696700;28;1548;-70
2023/10/31 01:33:02;;;;;;;7.00;4.30;;;;;;;;;;697679;28;1136;-75
2023/10/31 01:33:23;;;;;;;6.87;4.43;;;;;;;;;;697952;28;952;-71
2023/10/31 01:33:43;;;;;;;6.30;4.40;;;;;;;;;;694951;28;4522;-69
2023/10/31 01:34:03;;;;;;;5.90;4.37;;;;;;;;;;695777;28;1488;-68
2023/10/31 01:34:23;;;;;;;5.53;3.60;;;;;;;;;;695794;28;2076;-73
2023/10/31 01:34:44;;;;;;;8.07;4.83;;;;;;;;;;694601;28;2422;-69
2023/10/31 01:35:04;;;;;;;6.63;4.83;;;;;;;;;;695686;28;885;-69
2023/10/31 01:35:24;;;;;;;7.57;4.40;;;;;;;;;;698130;28;844;-69
2023/10/31 01:35:45;;;;;;;7.47;4.60;;;;;;;;;;699817;28;2393;-68
2023/10/31 01:36:06;;;;;;;7.05;4.50;;;;;;;;;;703713;28;884;-68
2023/10/31 01:36:26;;;;;;;8.30;4.43;;;;;;;;;;704010;28;789;-69
2023/10/31 01:36:47;;;;;;;7.97;4.20;;;;;;;;;;701910;28;4528;-68
2023/10/31 01:37:07;;;;;;;6.72;4.03;;;;;;;;;;704439;28;780;-69
2023/10/31 01:37:27;;;;;;;6.07;3.93;;;;;;;;;;701197;28;1170;-69
2023/10/31 01:37:48;;;;;;;6.43;4.28;;;;;;;;;;696210;28;1725;-70
2023/10/31 01:38:09;;;;;;;6.30;3.83;;;;;;;;;;699770;28;836;-68
2023/10/31 01:38:29;;;;;;;5.97;3.73;;;;;;;;;;697572;28;1226;-68
2023/10/31 01:38:51;;;;;;;5.95;3.88;;;;;;;;;;693466;28;5875;-68
2023/10/31 01:39:11;;;;;;;6.00;3.70;;;;;;;;;;696188;28;1898;-67
2023/10/31 01:39:31;;;;;;;7.90;4.00;;;;;;;;;;696385;28;1314;-68
2023/10/31 01:39:52;;;;;;;6.65;4.10;;;;;;;;;;693891;28;4306;-68
2023/10/31 01:40:12;;;;;;;6.20;3.70;;;;;;;;;;698035;28;1198;-68
2023/10/31 01:40:33;;;;;;;5.50;3.60;;;;;;;;;;699095;28;816;-68
2023/10/31 01:40:54;;;;;;;6.97;3.65;;;;;;;;;;700988;28;1412;-68
2023/10/31 01:41:15;;;;;;;5.87;3.63;;;;;;;;;;700123;28;979;-68
2023/10/31 01:41:36;;;;;;;5.60;3.60;;;;;;;;;;702049;28;1769;-68
2023/10/31 01:41:56;;;;;;;5.78;3.75;;;;;;;;;;703446;28;976;-68
2023/10/31 01:42:18;;;;;;;5.93;3.90;;;;;;;;;;702245;28;913;-68
2023/10/31 01:42:39;;;;;;;5.70;3.65;;;;;;;;;;699857;28;2512;-68
2023/10/31 01:43:01;;;;;;;6.57;3.90;;;;;;;;;;699375;28;4274;-69
2023/10/31 01:43:30;;;;;;;6.73;3.70;;;;;;;;;;698473;28;1275;-69
2023/10/31 01:43:50;;;;;;;6.03;3.70;;;;;;;;;;697421;28;1821;-67
2023/10/31 01:44:11;;;;;;;6.27;4.07;;;;;;;;;;698426;28;951;-68
2023/10/31 01:44:31;;;;;;;6.40;4.05;;;;;;;;;;697244;28;1402;-68
2023/10/31 01:44:51;;;;;;;6.53;4.00;;;;;;;;;;697741;28;2402;-68
2023/10/31 01:45:12;;;;;;;6.55;3.67;;;;;;;;;;700439;28;867;-67
2023/10/31 01:45:32;;;;;;;6.40;3.80;;;;;;;;;;703675;28;784;-70
2023/10/31 01:45:53;;;;;;;6.80;3.78;;;;;;;;;;699350;28;4436;-68
2023/10/31 01:46:13;;;;;;;7.23;3.60;;;;;;;;;;701059;28;848;-67
2023/10/31 01:46:34;;;;;;;7.30;3.75;;;;;;;;;;701308;28;888;-68
2023/10/31 01:46:55;;;;;;;9.73;3.73;;;;;;;;;;700144;28;1872;-67
2023/10/31 01:47:15;;;;;;;6.80;3.58;;;;;;;;;;701044;28;1610;-69
2023/10/31 01:47:35;;;;;;;5.30;3.10;;;;;;;;;;697165;28;2476;-68
2023/10/31 01:47:56;;;;;;;5.37;2.93;;;;;;;;;;698764;28;951;-67
2023/10/31 01:48:16;;;;;;;4.53;2.70;;;;;;;;;;698482;28;789;-68
2023/10/31 01:48:36;;;;;;;5.28;2.90;;;;;;;;;;698330;28;1811;-68
2023/10/31 01:48:57;;;;;;;5.07;2.97;;;;;;;;;;700307;28;4592;-69
2023/10/31 01:49:17;;;;;;;4.55;2.90;;;;;;;;;;700977;28;1376;-68
2023/10/31 01:49:38;;;;;;;4.67;3.00;;;;;;;;;;702681;28;2369;-68
2023/10/31 01:49:59;;;;;;;5.95;3.30;;;;;;;;;;705432;27;879;-68
2023/10/31 01:50:19;;;;;;;6.50;3.20;;;;;;;;;;705710;27;897;-68
2023/10/31 01:50:40;;;;;;;6.65;3.40;;;;;;;;;;704128;27;1770;-67
2023/10/31 01:51:03;;;;;;;7.50;3.43;;;;;;;;;;705821;27;923;-67
2023/10/31 01:51:23;;;;;;;8.82;3.60;;;;;;;;;;704053;28;1068;-67
2023/10/31 01:51:44;;;;;;;8.50;3.93;;;;;;;;;;701999;28;4286;-68
2023/10/31 01:52:05;;;;;;;6.18;4.28;;;;;;;;;;704135;28;1221;-68
2023/10/31 01:52:26;;;;;;;7.10;4.35;;;;;;;;;;704087;28;797;-67
2023/10/31 01:52:46;;;;;;;7.10;3.95;;;;;;;;;;702934;28;2256;-67
2023/10/31 01:53:06;;;;;;;5.88;3.47;;;;;;;;;;703768;28;780;-68
2023/10/31 01:53:28;;;;;;;4.63;2.87;;;;;;;;;;700906;28;892;-68
2023/10/31 01:53:48;;;;;;;6.35;3.17;;;;;;;;;;700495;28;1107;-67
2023/10/31 01:54:10;;;;;;;6.67;3.50;;;;;;;;;;704430;28;987;-67
2023/10/31 01:54:30;;;;;;;6.60;3.47;;;;;;;;;;700712;28;1430;-67
2023/10/31 01:54:50;;;;;;;6.43;2.90;;;;;;;;;;693692;28;4427;-67
2023/10/31 01:55:11;;;;;;;6.90;3.42;;;;;;;;;;696170;28;905;-68
2023/10/31 01:55:31;;;;;;;6.27;3.80;;;;;;;;;;693829;28;1287;-68
2023/10/31 01:55:52;;;;;;;8.18;4.85;;;;;;;;;;692695;28;1752;-68
2023/10/31 01:56:12;;;;;;;7.57;4.68;;;;;;;;;;695564;28;1395;-67
2023/10/31 01:56:33;;;;;;;8.48;4.60;;;;;;;;;;695934;28;1239;-67
2023/10/31 01:56:56;;;;;;;7.43;3.90;;;;;;;;;;694953;28;2356;-67
2023/10/31 01:57:18;;;;;;;8.57;3.40;;;;;;;;;;692608;28;1447;-67
2023/10/31 01:57:38;;;;;;;5.72;3.92;;;;;;;;;;688485;28;2709;-68
2023/10/31 01:57:59;;;;;;;7.03;4.57;;;;;;;;;;693276;28;4254;-68
2023/10/31 01:58:21;;;;;;;7.63;5.18;;;;;;;;;;692944;28;1370;-67
2023/10/31 01:58:43;;;;;;;7.28;4.72;;;;;;;;;;693026;28;1196;-68
2023/10/31 01:59:04;;;;;;;6.65;4.70;;;;;;;;;;693067;28;1046;-67
2023/10/31 01:59:27;;;;;;;7.40;3.88;;;;;;;;;;698040;28;1918;-67
2023/10/31 01:59:47;;;;;;;7.50;4.53;;;;;;;;;;694051;28;1864;-67
2023/10/31 02:00:08;;;;;;;7.77;5.03;;;;;;;;;;695423;28;1188;-68
2023/10/31 02:00:35;;;;;;;6.85;4.20;;;;;;;;;;692859;28;1346;-68
2023/10/31 02:00:55;;;;;;;7.37;3.97;;;;;;;;;;690832;28;4368;-67
2023/10/31 02:01:16;;;;;;;7.00;4.03;;;;;;;;;;693730;28;907;-67
2023/10/31 02:01:39;;;;;;;6.45;4.20;;;;;;;;;;695083;28;1733;-69
2023/10/31 02:02:00;;;;;;;7.60;3.97;;;;;;;;;;700027;28;871;-67
2023/10/31 02:02:22;;;;;;;7.57;4.05;;;;;;;;;;698909;28;967;-68
2023/10/31 02:02:43;;;;;;;7.63;4.10;;;;;;;;;;695761;28;1785;-67
2023/10/31 02:03:04;;;;;;;6.18;3.83;;;;;;;;;;698009;28;805;-67
2023/10/31 02:03:24;;;;;;;6.47;3.90;;;;;;;;;;699291;28;1333;-67
2023/10/31 02:03:45;;;;;;;7.13;3.60;;;;;;;;;;698126;28;4272;-68
2023/10/31 02:04:05;;;;;;;7.20;3.60;;;;;;;;;;699661;28;938;-66
2023/10/31 02:04:25;;;;;;;5.95;3.53;;;;;;;;;;701520;28;878;-67
2023/10/31 02:04:46;;;;;;;5.63;3.40;;;;;;;;;;698653;28;2380;-67
2023/10/31 02:05:06;;;;;;;6.82;3.15;;;;;;;;;;698912;28;860;-67
2023/10/31 02:05:28;;;;;;;7.20;3.13;;;;;;;;;;703070;28;760;-66
2023/10/31 02:05:50;;;;;;;6.22;3.40;;;;;;;;;;700048;28;2224;-67
2023/10/31 02:06:11;;;;;;;7.10;3.50;;;;;;;;;;699495;28;839;-66
2023/10/31 02:06:31;;;;;;;6.57;3.20;;;;;;;;;;698047;28;807;-67
2023/10/31 02:06:51;;;;;;;5.87;3.00;;;;;;;;;;694436;28;4314;-67
2023/10/31 02:07:13;;;;;;;6.70;3.30;;;;;;;;;;696657;28;952;-66
2023/10/31 02:07:33;;;;;;;6.37;3.37;;;;;;;;;;697117;28;1279;-66
2023/10/31 02:07:53;;;;;;;5.50;3.00;;;;;;;;;;693143;28;2848;-66